Time;durP1;ratioP1;P1;durP2;ratioP2;P2;SDS_P1;SDS_P2;PMS_P1;PMS_P2;Temp;Humidity;BMP_temperature;BMP_pressure;BME280_temperature;BME280_humidity;BME280_pressure;Samples;Min_cycle;Max_cycle;Signal;HPM_P1;HPM_P2
2023/09/13 00:02:15;;;;;;;4.65;1.60;;;19.20;99.90;;;;;;5074323;28;20032;-76
2023/09/13 00:04:41;;;;;;;4.38;1.55;;;19.20;99.90;;;;;;5073998;28;20403;-75
2023/09/13 00:07:06;;;;;;;4.95;1.60;;;19.20;99.90;;;;;;5073273;28;20024;-75
2023/09/13 00:09:32;;;;;;;3.63;1.50;;;19.10;99.90;;;;;;5073676;28;20086;-76
2023/09/13 00:11:58;;;;;;;7.15;1.67;;;19.10;99.90;;;;;;5055582;28;20033;-76
2023/09/13 00:14:23;;;;;;;8.68;1.55;;;19.10;99.90;;;;;;5073670;28;20028;-76
2023/09/13 00:16:50;;;;;;;3.95;1.63;;;19.00;99.90;;;;;;5073599;28;20037;-75
2023/09/13 00:19:16;;;;;;;2.45;1.70;;;19.00;99.90;;;;;;5073447;28;20029;-76
2023/09/13 00:21:42;;;;;;;3.30;1.90;;;19.00;99.90;;;;;;5055476;28;20033;-76
2023/09/13 00:24:09;;;;;;;2.25;1.15;;;19.00;99.90;;;;;;5055562;28;20017;-75
2023/09/13 00:26:34;;;;;;;4.05;1.83;;;19.00;99.90;;;;;;5074266;28;20021;-75
2023/09/13 00:29:00;;;;;;;4.90;2.17;;;19.00;99.90;;;;;;5073562;28;20090;-72
2023/09/13 00:31:25;;;;;;;3.97;1.77;;;19.00;99.90;;;;;;5055262;28;20024;-71
2023/09/13 00:33:51;;;;;;;4.88;2.17;;;18.90;99.90;;;;;;5073671;28;20066;-71
2023/09/13 00:36:19;;;;;;;4.00;1.77;;;18.90;99.90;;;;;;5073065;28;20033;-72
2023/09/13 00:38:45;;;;;;;4.13;1.48;;;18.90;99.90;;;;;;5056274;28;20487;-71
2023/09/13 00:41:10;;;;;;;1.80;1.30;;;18.90;99.90;;;;;;5073883;28;20028;-71
2023/09/13 00:43:36;;;;;;;3.63;1.85;;;18.90;99.90;;;;;;5073100;28;20082;-71
2023/09/13 00:46:04;;;;;;;3.15;1.70;;;19.20;99.90;;;;;;5073070;28;20031;-72
2023/09/13 00:48:30;;;;;;;4.82;1.83;;;18.80;99.90;;;;;;5073004;28;20012;-72
2023/09/13 00:50:58;;;;;;;3.20;1.70;;;18.80;99.90;;;;;;5073123;28;20506;-72
2023/09/13 00:53:25;;;;;;;3.22;2.00;;;18.80;99.90;;;;;;5073568;28;20135;-72
2023/09/13 00:55:53;;;;;;;3.17;1.50;;;18.70;99.90;;;;;;5073337;28;20407;-71
2023/09/13 00:58:19;;;;;;;2.65;1.67;;;18.70;99.90;;;;;;5073566;28;20071;-71
2023/09/13 01:00:46;;;;;;;1.83;1.50;;;18.60;99.90;;;;;;5074482;28;20025;-72
2023/09/13 01:03:15;;;;;;;1.85;1.15;;;18.60;99.90;;;;;;5076977;28;20381;-72
2023/09/13 01:05:43;;;;;;;3.95;1.55;;;18.60;99.90;;;;;;5077269;28;20111;-71
2023/09/13 01:08:09;;;;;;;3.10;1.67;;;18.60;99.90;;;;;;5077014;28;20013;-72
2023/09/13 01:10:34;;;;;;;3.35;1.65;;;18.50;99.90;;;;;;5076985;28;20029;-71
2023/09/13 01:13:00;;;;;;;6.97;2.33;;;18.50;99.90;;;;;;5076809;28;20036;-72
2023/09/13 01:15:37;;;;;;;4.43;1.77;;;18.40;99.90;;;;;;5077181;28;20486;-72
2023/09/13 01:18:13;;;;;;;7.32;2.33;;;18.40;99.90;;;;;;5076785;28;20063;-72
2023/09/13 01:21:05;;;;;;;5.78;2.83;;;18.40;99.90;;;;;;5077382;28;20020;-71
2023/09/13 01:23:49;;;;;;;3.97;2.22;;;18.40;99.90;;;;;;5077223;28;20029;-71
2023/09/13 01:26:38;;;;;;;3.30;1.35;;;18.50;99.90;;;;;;5076545;28;20021;-72
2023/09/13 01:29:05;;;;;;;5.10;2.10;;;18.40;99.90;;;;;;5043277;28;20113;-72
2023/09/13 01:31:33;;;;;;;7.07;3.70;;;18.50;99.90;;;;;;5076821;28;20027;-72
2023/09/13 01:33:58;;;;;;;6.20;2.60;;;18.50;99.90;;;;;;5076486;28;20100;-72
2023/09/13 01:36:24;;;;;;;5.47;2.63;;;18.50;99.90;;;;;;5058320;28;20029;-72
2023/09/13 01:38:50;;;;;;;3.25;1.67;;;18.50;99.90;;;;;;5076374;28;20020;-72
2023/09/13 01:41:39;;;;;;;3.38;1.92;;;18.50;99.90;;;;;;5058331;28;20035;-72
2023/09/13 01:44:06;;;;;;;6.13;2.40;;;18.50;99.90;;;;;;5076767;28;20028;-72
2023/09/13 01:46:37;;;;;;;3.90;1.92;;;18.50;99.90;;;;;;5076240;28;20103;-72
2023/09/13 01:49:04;;;;;;;3.72;1.90;;;18.50;99.90;;;;;;5076771;28;20020;-72
2023/09/13 01:51:32;;;;;;;6.60;2.70;;;18.40;99.90;;;;;;5076183;28;20551;-72
2023/09/13 01:53:57;;;;;;;5.05;2.33;;;18.40;99.90;;;;;;5077136;28;20028;-72
2023/09/13 01:56:23;;;;;;;4.20;1.77;;;18.40;99.90;;;;;;5075964;28;20036;-72
2023/09/13 01:58:49;;;;;;;4.85;2.22;;;18.40;99.90;;;;;;5076606;28;20028;-72
2023/09/13 02:01:18;;;;;;;5.20;2.33;;;18.40;99.90;;;;;;5075945;28;20021;-72
2023/09/13 02:03:44;;;;;;;4.78;2.45;;;18.40;99.90;;;;;;5075936;28;20031;-72
2023/09/13 02:06:10;;;;;;;3.22;2.20;;;18.40;99.90;;;;;;5075917;28;20025;-72
2023/09/13 02:08:37;;;;;;;4.55;2.03;;;18.40;99.90;;;;;;5075750;28;20090;-72
2023/09/13 02:11:04;;;;;;;3.67;1.88;;;18.40;99.90;;;;;;5075758;28;20074;-72
2023/09/13 02:13:29;;;;;;;3.58;1.95;;;18.40;99.90;;;;;;5075827;28;20107;-72
2023/09/13 02:15:55;;;;;;;4.20;2.10;;;18.40;99.90;;;;;;5075609;28;20059;-72
2023/09/13 02:18:21;;;;;;;5.30;2.28;;;18.40;99.90;;;;;;5075497;28;20024;-72
2023/09/13 02:20:46;;;;;;;7.18;3.00;;;18.40;99.90;;;;;;5076106;28;20020;-72
2023/09/13 02:23:12;;;;;;;4.45;2.33;;;18.40;99.90;;;;;;5076088;28;20464;-72
2023/09/13 02:25:38;;;;;;;3.28;1.92;;;18.40;99.90;;;;;;5075445;28;20056;-71
2023/09/13 02:28:04;;;;;;;4.38;2.58;;;18.30;99.90;;;;;;5057666;28;20020;-72
2023/09/13 02:30:34;;;;;;;4.57;2.45;;;18.30;99.90;;;;;;5075506;28;20048;-72
2023/09/13 02:33:00;;;;;;;6.70;2.55;;;18.30;99.90;;;;;;5076127;28;20029;-72
2023/09/13 02:35:26;;;;;;;4.07;1.85;;;18.30;99.90;;;;;;5075330;28;20032;-71
2023/09/13 02:37:51;;;;;;;3.80;2.50;;;18.30;99.90;;;;;;5075137;28;20032;-71
2023/09/13 02:40:17;;;;;;;4.65;2.30;;;18.30;99.90;;;;;;5075831;28;20046;-71
2023/09/13 02:42:43;;;;;;;4.65;2.35;;;18.30;99.90;;;;;;5075091;28;20024;-72
2023/09/13 02:45:09;;;;;;;9.52;3.15;;;18.30;99.90;;;;;;5075193;28;20017;-72
2023/09/13 02:47:34;;;;;;;6.97;3.15;;;18.20;99.90;;;;;;5075154;28;20035;-72
2023/09/13 02:50:00;;;;;;;4.20;2.70;;;18.20;99.90;;;;;;5075691;28;20025;-72
2023/09/13 02:52:30;;;;;;;4.72;2.60;;;18.20;99.90;;;;;;5075012;28;20031;-72
2023/09/13 02:54:57;;;;;;;6.03;3.20;;;18.20;99.90;;;;;;5075044;28;20392;-72
2023/09/13 02:57:23;;;;;;;5.40;3.15;;;18.30;99.90;;;;;;5075487;28;20058;-72
2023/09/13 02:59:49;;;;;;;6.35;3.58;;;18.10;99.90;;;;;;5074899;28;20032;-71
2023/09/13 03:02:14;;;;;;;8.00;3.47;;;18.10;99.90;;;;;;5074702;28;20029;-72
2023/09/13 03:04:40;;;;;;;4.40;3.03;;;18.10;99.90;;;;;;5074839;28;20021;-72
2023/09/13 03:07:06;;;;;;;3.58;2.17;;;18.00;99.90;;;;;;5074708;28;20020;-72
2023/09/13 03:09:34;;;;;;;4.93;2.40;;;18.00;99.90;;;;;;5074656;28;20035;-72
2023/09/13 03:12:01;;;;;;;4.00;2.33;;;17.90;99.90;;;;;;5074645;28;20109;-72
2023/09/13 03:14:28;;;;;;;5.45;3.13;;;18.00;99.90;;;;;;5074699;28;20476;-72
2023/09/13 03:16:53;;;;;;;6.43;2.80;;;18.00;99.90;;;;;;5056776;28;20033;-72
2023/09/13 03:19:19;;;;;;;7.95;3.47;;;18.00;99.90;;;;;;5075028;28;20373;-72
2023/09/13 03:21:45;;;;;;;3.90;2.78;;;18.00;99.90;;;;;;5074342;28;20036;-72
2023/09/13 03:24:10;;;;;;;7.57;3.50;;;18.00;99.90;;;;;;5073878;28;20020;-72
2023/09/13 03:26:36;;;;;;;7.18;2.65;;;18.00;99.90;;;;;;5074430;28;20098;-72
2023/09/13 03:29:02;;;;;;;7.45;3.35;;;18.00;99.90;;;;;;5074249;28;20070;-72
2023/09/13 03:31:28;;;;;;;6.70;3.47;;;18.00;99.90;;;;;;5074433;28;20499;-72
2023/09/13 03:33:55;;;;;;;4.80;2.97;;;18.00;99.90;;;;;;5074170;28;20033;-72
2023/09/13 03:36:21;;;;;;;6.82;3.40;;;18.00;99.90;;;;;;5074066;28;20042;-72
2023/09/13 03:38:47;;;;;;;6.55;3.22;;;18.00;99.90;;;;;;5074163;28;20024;-72
2023/09/13 03:41:15;;;;;;;5.90;3.72;;;18.00;99.90;;;;;;5074045;28;20052;-72
2023/09/13 03:43:41;;;;;;;5.03;3.28;;;18.00;99.90;;;;;;5074041;28;20024;-72
2023/09/13 03:46:07;;;;;;;6.20;3.45;;;18.00;99.90;;;;;;5074042;28;20048;-72
2023/09/13 03:48:34;;;;;;;9.65;4.95;;;17.90;99.90;;;;;;5074595;28;20455;-72
2023/09/13 03:51:00;;;;;;;5.97;3.53;;;18.00;99.90;;;;;;5073931;28;20433;-72
2023/09/13 03:53:26;;;;;;;10.05;4.65;;;18.00;99.90;;;;;;5055977;28;20111;-72
2023/09/13 03:55:53;;;;;;;7.13;4.22;;;18.00;99.90;;;;;;5074092;28;20020;-72
2023/09/13 03:58:18;;;;;;;7.47;4.85;;;18.10;99.90;;;;;;5073765;28;20013;-71
2023/09/13 04:00:44;;;;;;;10.15;6.00;;;18.10;99.90;;;;;;5074243;28;20027;-72
2023/09/13 04:03:11;;;;;;;11.50;6.38;;;18.10;99.90;;;;;;5073899;28;20043;-71
2023/09/13 04:05:37;;;;;;;9.32;6.13;;;18.10;99.90;;;;;;5073618;28;20016;-71
2023/09/13 04:08:02;;;;;;;11.48;5.75;;;18.10;99.90;;;;;;5073766;28;20017;-71
2023/09/13 04:10:28;;;;;;;9.35;5.68;;;18.20;99.90;;;;;;5073601;28;20028;-72
2023/09/13 04:12:54;;;;;;;15.60;7.00;;;18.20;99.90;;;;;;5074161;28;20024;-72
2023/09/13 04:15:20;;;;;;;17.63;9.77;;;18.20;99.90;;;;;;5073534;28;20020;-71
2023/09/13 04:17:45;;;;;;;15.88;8.75;;;18.20;99.90;;;;;;5055725;28;20021;-71
2023/09/13 04:20:11;;;;;;;18.38;10.20;;;18.30;99.90;;;;;;5073500;28;20081;-72
2023/09/13 04:22:37;;;;;;;21.10;11.43;;;18.30;99.90;;;;;;5073225;28;20029;-72
2023/09/13 04:25:04;;;;;;;23.23;10.77;;;18.30;99.90;;;;;;5055425;28;20506;-71
2023/09/13 04:27:30;;;;;;;22.52;10.55;;;18.30;99.90;;;;;;5055378;28;20024;-71
2023/09/13 04:29:56;;;;;;;23.80;11.52;;;18.30;99.90;;;;;;5073511;28;20017;-72
2023/09/13 04:32:22;;;;;;;23.25;11.70;;;18.30;99.90;;;;;;5073296;28;20373;-71
2023/09/13 04:34:47;;;;;;;24.33;11.93;;;18.30;99.90;;;;;;5072808;28;20029;-71
2023/09/13 04:37:15;;;;;;;23.10;12.13;;;18.30;99.90;;;;;;5072829;28;20483;-71
2023/09/13 04:39:41;;;;;;;27.92;13.98;;;18.30;99.90;;;;;;5073399;28;20070;-71
2023/09/13 04:42:06;;;;;;;25.98;13.32;;;18.30;99.90;;;;;;5073035;28;20480;-71
2023/09/13 04:44:32;;;;;;;28.08;12.95;;;18.30;99.90;;;;;;5073397;28;20107;-71
2023/09/13 04:46:59;;;;;;;25.30;13.07;;;18.30;99.90;;;;;;5073277;28;20024;-72
2023/09/13 04:49:25;;;;;;;27.90;14.77;;;18.30;99.90;;;;;;5055257;28;20025;-72
2023/09/13 04:51:52;;;;;;;29.85;13.57;;;18.20;99.90;;;;;;5073296;28;20537;-72
2023/09/13 04:54:17;;;;;;;30.88;13.10;;;18.20;99.90;;;;;;5055108;28;20060;-72
2023/09/13 04:56:43;;;;;;;28.85;14.05;;;18.20;99.90;;;;;;5073090;28;20056;-72
2023/09/13 04:59:09;;;;;;;25.50;14.10;;;18.20;99.90;;;;;;5073739;28;20469;-71
2023/09/13 05:01:34;;;;;;;31.08;14.77;;;18.20;99.90;;;;;;5073055;28;20074;-72
2023/09/13 05:04:00;;;;;;;28.27;14.18;;;18.10;99.90;;;;;;5073154;28;20150;-72
2023/09/13 05:06:25;;;;;;;32.25;13.93;;;18.10;99.90;;;;;;5072927;28;20024;-72
2023/09/13 05:08:54;;;;;;;29.23;14.48;;;18.10;99.90;;;;;;5073072;28;20028;-71
2023/09/13 05:11:20;;;;;;;28.27;13.27;;;18.10;99.90;;;;;;5073069;28;20021;-72
2023/09/13 05:13:47;;;;;;;34.58;16.25;;;18.00;99.90;;;;;;5073432;28;20032;-71
2023/09/13 05:16:20;;;;;;;28.55;14.07;;;18.10;99.90;;;;;;5073365;28;20107;-72
2023/09/13 05:18:46;;;;;;;35.22;15.57;;;18.10;99.90;;;;;;5073356;28;20081;-72
2023/09/13 05:21:12;;;;;;;25.60;14.27;;;18.20;99.90;;;;;;5072687;28;20532;-73
2023/09/13 05:23:38;;;;;;;33.47;14.63;;;18.20;99.90;;;;;;5072770;28;20123;-72
2023/09/13 05:26:03;;;;;;;27.85;13.00;;;18.30;99.90;;;;;;5072552;28;20052;-72
2023/09/13 05:28:33;;;;;;;28.55;14.45;;;18.30;99.90;;;;;;5054772;28;20043;-72
2023/09/13 05:31:00;;;;;;;31.15;14.75;;;18.40;99.90;;;;;;5072731;28;20017;-72
2023/09/13 05:33:26;;;;;;;28.95;14.32;;;18.40;99.90;;;;;;5072789;28;20104;-72
2023/09/13 05:35:52;;;;;;;12.38;5.72;;;18.50;99.90;;;;;;5072522;28;20486;-72
2023/09/13 05:38:18;;;;;;;11.13;2.90;;;18.50;99.90;;;;;;5073150;28;20025;-72
2023/09/13 05:40:44;;;;;;;4.50;1.00;;;18.50;99.90;;;;;;5072631;28;20035;-72
2023/09/13 05:43:09;;;;;;;1.98;0.10;;;18.40;99.90;;;;;;5073007;28;20461;-72
2023/09/13 05:45:35;;;;;;;1.70;0.00;;;18.30;99.90;;;;;;5072409;28;20392;-72
2023/09/13 05:48:02;;;;;;;2.70;0.15;;;18.20;99.90;;;;;;5075415;28;20059;-72
2023/09/13 05:50:30;;;;;;;0.95;0.20;;;18.20;99.90;;;;;;5058082;28;20021;-73
2023/09/13 05:52:56;;;;;;;1.30;0.00;;;18.00;99.90;;;;;;5058350;28;20025;-73
2023/09/13 05:55:21;;;;;;;1.80;0.00;;;17.90;99.90;;;;;;5076456;28;20055;-73
2023/09/13 05:57:47;;;;;;;0.57;0.00;;;17.80;99.90;;;;;;5076558;28;20118;-72
2023/09/13 06:00:13;;;;;;;0.22;0.00;;;17.70;99.90;;;;;;5076505;28;20052;-72
2023/09/13 06:02:39;;;;;;;3.88;0.28;;;17.70;99.90;;;;;;5057903;28;20035;-72
2023/09/13 06:05:05;;;;;;;0.93;0.00;;;17.60;99.90;;;;;;5058024;28;20016;-72
2023/09/13 06:07:31;;;;;;;0.20;0.00;;;17.60;99.90;;;;;;5076161;28;20027;-72
2023/09/13 06:09:58;;;;;;;0.65;0.00;;;17.40;99.90;;;;;;5075762;28;20464;-72
2023/09/13 06:12:24;;;;;;;2.70;0.35;;;17.30;99.90;;;;;;5075766;28;20487;-72
2023/09/13 06:14:53;;;;;;;0.40;0.10;;;17.20;99.90;;;;;;5057741;28;20025;-71
2023/09/13 06:17:19;;;;;;;4.15;0.35;;;17.10;99.90;;;;;;5075672;28;20454;-72
2023/09/13 06:19:45;;;;;;;0.13;0.00;;;17.00;99.90;;;;;;5076190;28;20103;-72
2023/09/13 06:22:10;;;;;;;0.85;0.00;;;17.00;99.90;;;;;;5075546;28;20040;-72
2023/09/13 06:24:36;;;;;;;1.13;0.28;;;17.00;99.90;;;;;;5075532;28;20086;-72
2023/09/13 06:27:01;;;;;;;0.98;0.10;;;16.90;99.90;;;;;;5074115;28;20446;-72
2023/09/13 06:29:27;;;;;;;0.35;0.00;;;16.90;99.90;;;;;;5073390;28;20503;-72
2023/09/13 06:31:54;;;;;;;0.20;0.00;;;16.90;99.90;;;;;;5074888;28;20484;-72
2023/09/13 06:34:20;;;;;;;1.35;0.00;;;16.90;99.90;;;;;;5075147;28;20020;-72
2023/09/13 06:36:50;;;;;;;2.97;0.20;;;16.90;99.90;;;;;;5056762;28;20036;-72
2023/09/13 06:39:17;;;;;;;1.45;0.08;;;16.90;99.90;;;;;;5075406;28;20044;-72
2023/09/13 06:41:43;;;;;;;1.45;0.00;;;16.90;99.90;;;;;;5057220;28;20029;-72
2023/09/13 06:44:09;;;;;;;0.57;0.00;;;16.90;99.90;;;;;;5075137;28;20153;-72
2023/09/13 06:46:35;;;;;;;1.02;0.10;;;16.80;99.90;;;;;;5075130;28;20024;-72
2023/09/13 06:49:03;;;;;;;0.40;0.00;;;16.80;99.90;;;;;;5075069;28;20048;-72
2023/09/13 06:51:29;;;;;;;0.20;0.00;;;16.80;99.90;;;;;;5074985;28;20035;-72
2023/09/13 06:53:55;;;;;;;0.98;0.00;;;16.70;99.90;;;;;;5074972;28;20035;-72
2023/09/13 06:56:20;;;;;;;0.00;0.00;;;16.70;99.90;;;;;;5075088;28;20032;-72
2023/09/13 06:58:46;;;;;;;2.38;0.10;;;16.70;99.90;;;;;;5056173;28;20028;-72
2023/09/13 07:01:12;;;;;;;0.95;0.10;;;16.70;99.90;;;;;;5074726;28;20112;-72
2023/09/13 07:03:38;;;;;;;2.58;0.35;;;16.70;99.90;;;;;;5056966;28;20024;-72
2023/09/13 07:06:04;;;;;;;4.40;0.00;;;16.80;99.90;;;;;;5074898;28;20028;-72
2023/09/13 07:08:29;;;;;;;0.90;0.00;;;16.80;99.90;;;;;;5075233;28;20017;-72
2023/09/13 07:10:55;;;;;;;1.52;0.17;;;16.90;99.90;;;;;;5074677;28;20395;-72
2023/09/13 07:13:21;;;;;;;0.40;0.00;;;16.90;99.90;;;;;;5074666;28;20466;-72
2023/09/13 07:15:47;;;;;;;0.50;0.00;;;17.00;99.90;;;;;;5074530;28;20029;-72
2023/09/13 07:18:13;;;;;;;0.32;0.00;;;17.00;99.90;;;;;;5074643;28;20031;-72
2023/09/13 07:20:39;;;;;;;1.55;0.00;;;17.00;99.90;;;;;;5075144;28;20080;-72
2023/09/13 07:23:04;;;;;;;0.68;0.00;;;17.10;99.90;;;;;;5074843;28;20105;-72
2023/09/13 07:25:30;;;;;;;1.35;0.43;;;17.10;99.90;;;;;;5074380;28;20021;-72
2023/09/13 07:27:55;;;;;;;1.27;0.10;;;17.10;99.90;;;;;;5074286;28;20025;-72
2023/09/13 07:30:21;;;;;;;1.58;0.28;;;17.00;99.90;;;;;;5074240;28;20055;-72
2023/09/13 07:32:49;;;;;;;3.50;0.13;;;17.10;99.90;;;;;;5074205;28;20024;-72
2023/09/13 07:35:15;;;;;;;0.73;0.00;;;17.30;99.90;;;;;;5056143;28;20073;-72
2023/09/13 07:37:41;;;;;;;1.55;0.10;;;17.20;99.90;;;;;;5073981;28;20032;-72
2023/09/13 07:40:07;;;;;;;0.32;0.00;;;17.40;99.90;;;;;;5074643;28;20437;-72
2023/09/13 07:42:32;;;;;;;1.90;0.10;;;17.60;99.90;;;;;;5073869;28;20029;-72
2023/09/13 07:44:59;;;;;;;4.35;0.40;;;;;;;;;;5073910;28;20043;-72
2023/09/13 07:47:27;;;;;;;2.22;0.20;;;18.20;99.90;;;;;;5055991;28;20460;-72
2023/09/13 07:49:53;;;;;;;3.45;0.05;;;18.20;99.90;;;;;;5073880;28;20012;-72
2023/09/13 07:52:18;;;;;;;1.73;0.10;;;18.40;99.90;;;;;;5073794;28;20098;-72
2023/09/13 07:54:44;;;;;;;1.38;0.22;;;18.60;99.90;;;;;;5073752;28;20047;-72
2023/09/13 07:57:09;;;;;;;0.98;0.00;;;18.80;99.90;;;;;;5056070;28;20373;-72
2023/09/13 07:59:35;;;;;;;0.10;0.00;;;18.90;99.90;;;;;;5074400;28;20527;-72
2023/09/13 08:02:00;;;;;;;0.20;0.00;;;19.00;99.90;;;;;;5073603;28;20055;-72
2023/09/13 08:04:26;;;;;;;0.60;0.00;;;19.00;99.90;;;;;;5055866;28;20480;-72
2023/09/13 08:06:51;;;;;;;2.60;0.00;;;18.90;99.90;;;;;;5055717;28;20029;-72
2023/09/13 08:09:17;;;;;;;0.20;0.00;;;18.70;99.90;;;;;;5073905;28;20429;-72
2023/09/13 08:11:45;;;;;;;0.40;0.00;;;18.60;99.90;;;;;;5055547;28;20028;-72
2023/09/13 08:14:10;;;;;;;2.15;0.00;;;18.60;99.90;;;;;;5073590;28;20032;-72
2023/09/13 08:16:36;;;;;;;5.85;0.40;;;18.70;99.90;;;;;;5073964;28;20095;-72
2023/09/13 08:19:02;;;;;;;1.23;0.00;;;18.90;99.90;;;;;;5073369;28;20480;-72
2023/09/13 08:21:27;;;;;;;1.05;0.10;;;19.20;99.90;;;;;;5073345;28;20392;-72
2023/09/13 08:23:53;;;;;;;7.10;0.40;;;19.50;99.90;;;;;;5073298;28;20032;-72
2023/09/13 08:26:19;;;;;;;2.35;0.17;;;19.60;99.90;;;;;;5073259;28;20016;-72
2023/09/13 08:28:45;;;;;;;6.93;0.30;;;19.80;99.90;;;;;;5073274;28;20025;-72
2023/09/13 08:31:11;;;;;;;2.58;0.20;;;19.70;99.90;;;;;;5073499;28;20042;-72
2023/09/13 08:33:36;;;;;;;1.10;0.00;;;19.90;99.90;;;;;;5074149;28;20036;-72
2023/09/13 08:36:02;;;;;;;2.15;0.00;;;19.80;99.90;;;;;;5054936;28;20108;-72
2023/09/13 08:38:28;;;;;;;0.63;0.00;;;19.90;99.90;;;;;;5073264;28;20017;-72
2023/09/13 08:40:54;;;;;;;1.15;0.20;;;19.90;99.90;;;;;;5073610;28;20029;-72
2023/09/13 08:43:23;;;;;;;2.15;0.40;;;20.00;99.90;;;;;;5073756;28;20070;-72
2023/09/13 08:45:50;;;;;;;0.73;0.00;;;20.00;99.90;;;;;;5073856;28;20372;-74
2023/09/13 08:48:18;;;;;;;4.95;0.25;;;20.10;99.90;;;;;;5055209;28;20023;-74
2023/09/13 08:50:45;;;;;;;1.42;0.10;;;20.10;99.90;;;;;;5073405;28;20104;-74
2023/09/13 08:53:12;;;;;;;0.10;0.00;;;20.10;99.90;;;;;;5073212;28;20028;-74
2023/09/13 08:55:39;;;;;;;1.50;0.00;;;20.20;99.90;;;;;;5073274;28;20161;-74
2023/09/13 08:58:05;;;;;;;2.85;0.10;;;20.20;99.90;;;;;;5073130;28;20032;-74
2023/09/13 09:00:37;;;;;;;0.30;0.00;;;20.20;99.90;;;;;;5073055;28;20089;-74
2023/09/13 09:03:05;;;;;;;3.05;0.28;;;20.40;99.90;;;;;;5072995;28;20048;-74
2023/09/13 09:05:32;;;;;;;1.52;0.00;;;20.50;99.90;;;;;;5072932;28;20028;-74
2023/09/13 09:07:59;;;;;;;1.58;0.00;;;20.50;99.90;;;;;;5055056;28;20027;-74
2023/09/13 09:10:25;;;;;;;2.05;0.00;;;20.50;99.90;;;;;;5073069;28;20047;-74
2023/09/13 09:12:55;;;;;;;2.13;0.00;;;20.60;99.90;;;;;;5073043;28;20582;-74
2023/09/13 09:15:24;;;;;;;1.77;0.00;;;20.60;99.90;;;;;;5072836;28;20023;-74
2023/09/13 09:17:52;;;;;;;1.25;0.10;;;20.50;99.90;;;;;;5072894;28;20395;-74
2023/09/13 09:20:19;;;;;;;0.88;0.00;;;20.60;99.90;;;;;;5073456;28;20020;-74
2023/09/13 09:22:45;;;;;;;0.35;0.00;;;20.60;99.90;;;;;;5075585;28;20115;-74
2023/09/13 09:25:13;;;;;;;1.42;0.00;;;20.50;99.90;;;;;;5076701;28;20507;-74
2023/09/13 09:27:39;;;;;;;1.65;0.20;;;20.50;99.90;;;;;;5076651;28;20013;-74
2023/09/13 09:30:07;;;;;;;5.72;0.85;;;20.50;99.90;;;;;;5076717;28;20395;-74
2023/09/13 09:32:36;;;;;;;1.75;0.08;;;20.50;99.90;;;;;;5076541;28;20017;-74
2023/09/13 09:35:04;;;;;;;0.75;0.00;;;20.50;99.90;;;;;;5076475;28;20511;-74
2023/09/13 09:37:31;;;;;;;2.33;0.07;;;20.50;99.90;;;;;;5076391;28;20068;-74
2023/09/13 09:39:57;;;;;;;2.00;0.00;;;20.50;99.90;;;;;;5076416;28;20413;-74
2023/09/13 09:42:23;;;;;;;1.48;0.08;;;20.60;99.90;;;;;;5076234;28;20025;-75
2023/09/13 09:44:49;;;;;;;3.13;0.45;;;20.60;99.90;;;;;;5076575;28;20092;-75
2023/09/13 09:47:15;;;;;;;2.58;0.10;;;20.70;99.90;;;;;;5076590;28;20020;-73
2023/09/13 09:49:46;;;;;;;2.70;0.05;;;21.20;99.90;;;;;;5076151;28;20497;-72
2023/09/13 09:52:13;;;;;;;2.17;0.20;;;21.20;99.90;;;;;;5077323;28;20085;-75
2023/09/13 09:54:39;;;;;;;1.17;0.00;;;21.50;99.90;;;;;;5076115;28;20078;-72
2023/09/13 09:57:06;;;;;;;0.73;0.10;;;21.60;99.90;;;;;;5076377;28;20103;-72
2023/09/13 09:59:33;;;;;;;1.17;0.20;;;21.30;99.90;;;;;;5075969;28;20093;-72
2023/09/13 10:02:00;;;;;;;2.08;0.13;;;21.40;99.90;;;;;;5076070;28;20516;-72
2023/09/13 10:04:26;;;;;;;3.28;0.10;;;21.60;99.90;;;;;;5076097;28;20025;-73
2023/09/13 10:07:03;;;;;;;5.78;0.00;;;21.70;99.90;;;;;;5076021;28;20107;-73
2023/09/13 10:09:43;;;;;;;1.75;0.00;;;21.80;99.90;;;;;;5075954;28;20024;-73
2023/09/13 10:12:09;;;;;;;2.78;0.32;;;22.00;99.90;;;;;;5075751;28;20059;-72
2023/09/13 10:14:36;;;;;;;1.80;0.35;;;21.90;99.90;;;;;;5075770;28;20031;-72
2023/09/13 10:17:05;;;;;;;2.20;0.00;;;21.80;99.90;;;;;;5075681;28;20032;-73
2023/09/13 10:19:32;;;;;;;0.95;0.00;;;21.50;99.90;;;;;;5075670;28;20025;-73
2023/09/13 10:21:58;;;;;;;1.67;0.10;;;21.40;99.90;;;;;;5075658;28;20047;-73
2023/09/13 10:24:28;;;;;;;1.00;0.20;;;21.40;99.90;;;;;;5075657;28;20143;-73
2023/09/13 10:26:55;;;;;;;1.75;0.30;;;21.20;99.90;;;;;;5075497;28;20025;-73
2023/09/13 10:29:29;;;;;;;3.70;0.10;;;21.50;99.90;;;;;;5057797;28;20120;-72
2023/09/13 10:32:00;;;;;;;1.90;0.00;;;21.50;99.90;;;;;;5076174;28;20033;-73
2023/09/13 10:34:27;;;;;;;2.03;0.00;;;21.40;99.90;;;;;;5074137;28;20025;-73
2023/09/13 10:37:03;;;;;;;0.30;0.00;;;21.60;99.90;;;;;;5075252;28;20534;-74
2023/09/13 10:39:37;;;;;;;1.10;0.10;;;21.80;99.90;;;;;;5076243;28;20020;-75
2023/09/13 10:42:10;;;;;;;0.80;0.00;;;21.90;99.90;;;;;;5075315;28;20449;-75
2023/09/13 10:44:36;;;;;;;3.05;0.28;;;22.40;99.90;;;;;;5075374;28;20435;-75
2023/09/13 10:47:06;;;;;;;2.28;0.30;;;22.90;99.90;;;;;;5057343;28;20404;-75
2023/09/13 10:49:33;;;;;;;2.22;0.10;;;22.90;99.90;;;;;;5075896;28;20074;-75
2023/09/13 10:52:00;;;;;;;1.85;0.03;;;23.10;99.90;;;;;;5057335;28;20032;-75
2023/09/13 10:54:28;;;;;;;1.58;0.00;;;23.00;99.90;;;;;;5075278;28;20447;-75
2023/09/13 10:56:55;;;;;;;1.25;0.00;;;22.20;99.90;;;;;;5075216;28;20492;-75
2023/09/13 10:59:23;;;;;;;0.38;0.10;;;22.20;99.90;;;;;;5075190;28;20024;-75
2023/09/13 11:01:49;;;;;;;1.70;0.13;;;21.30;99.90;;;;;;5074812;28;20032;-75
2023/09/13 11:04:17;;;;;;;0.90;0.00;;;20.60;99.90;;;;;;5057144;28;20433;-75
2023/09/13 11:06:44;;;;;;;0.73;0.00;;;20.10;99.90;;;;;;5056944;28;20021;-75
2023/09/13 11:09:17;;;;;;;0.80;0.00;;;19.70;99.90;;;;;;5074848;28;20028;-75
2023/09/13 11:11:53;;;;;;;3.25;0.10;;;19.40;99.90;;;;;;5074851;28;20032;-75
2023/09/13 11:14:30;;;;;;;2.67;0.00;;;19.30;99.90;;;;;;5074688;28;20100;-75
2023/09/13 11:17:08;;;;;;;3.80;0.00;;;19.10;99.90;;;;;;5074997;28;20055;-75
2023/09/13 11:19:33;;;;;;;2.42;0.55;;;19.10;99.90;;;;;;5056754;28;20112;-75
2023/09/13 11:22:03;;;;;;;1.25;0.00;;;19.00;99.90;;;;;;5074538;28;20099;-75
2023/09/13 11:24:39;;;;;;;2.28;0.00;;;19.00;99.90;;;;;;5074535;28;20099;-75
2023/09/13 11:27:12;;;;;;;1.65;0.00;;;19.10;99.90;;;;;;5056748;28;20159;-75
2023/09/13 11:29:44;;;;;;;2.15;0.00;;;19.30;99.90;;;;;;5074470;28;20043;-75
2023/09/13 11:32:20;;;;;;;4.18;0.10;;;19.40;99.90;;;;;;5074325;28;20109;-75
2023/09/13 11:34:54;;;;;;;0.45;0.08;;;19.50;99.90;;;;;;5056449;28;20028;-75
2023/09/13 11:37:20;;;;;;;2.55;0.30;;;19.60;99.90;;;;;;5074138;28;20078;-75
2023/09/13 11:40:06;;;;;;;1.13;0.10;;;19.80;99.90;;;;;;5074508;28;20109;-75
2023/09/13 11:42:33;;;;;;;2.45;0.10;;;19.90;99.90;;;;;;5074939;28;20024;-75
2023/09/13 11:44:59;;;;;;;2.42;0.00;;;20.10;99.90;;;;;;5073588;28;20438;-75
2023/09/13 11:47:26;;;;;;;1.13;0.08;;;20.10;99.90;;;;;;5074380;28;20103;-75
2023/09/13 11:49:55;;;;;;;2.10;0.30;;;20.30;99.90;;;;;;5074059;28;20407;-75
2023/09/13 11:52:22;;;;;;;7.32;0.80;;;20.50;99.90;;;;;;5074089;28;20107;-74
2023/09/13 11:54:57;;;;;;;1.02;0.00;;;20.80;99.90;;;;;;5074125;28;20479;-75
2023/09/13 11:57:43;;;;;;;0.82;0.20;;;21.00;99.90;;;;;;5074118;28;20032;-75
2023/09/13 12:00:14;;;;;;;2.95;0.20;;;21.30;99.90;;;;;;5073752;28;20024;-75
2023/09/13 12:02:43;;;;;;;2.08;0.20;;;21.60;99.90;;;;;;5074103;28;20100;-75
2023/09/13 12:05:09;;;;;;;0.93;0.10;;;21.70;99.90;;;;;;5073835;28;20046;-75
2023/09/13 12:07:35;;;;;;;1.75;0.00;;;21.70;99.90;;;;;;5056045;28;20024;-75
2023/09/13 12:10:00;;;;;;;1.92;0.20;;;21.80;99.90;;;;;;5073728;28;20020;-75
2023/09/13 12:12:26;;;;;;;1.75;0.10;;;21.80;99.90;;;;;;5073667;28;20032;-75
2023/09/13 12:14:52;;;;;;;0.88;0.15;;;21.80;99.90;;;;;;5074328;28;20365;-75
2023/09/13 12:17:17;;;;;;;1.05;0.10;;;21.80;99.90;;;;;;5073663;28;20017;-75
2023/09/13 12:19:46;;;;;;;2.38;0.52;;;22.50;99.90;;;;;;5073658;28;20055;-75
2023/09/13 12:22:14;;;;;;;1.13;0.22;;;22.50;99.90;;;;;;5073711;28;20028;-75
2023/09/13 12:24:50;;;;;;;1.45;0.13;;;23.00;99.90;;;;;;5073600;28;20020;-75
2023/09/13 12:27:15;;;;;;;0.98;0.10;;;23.40;99.90;;;;;;5073890;28;20029;-75
2023/09/13 12:29:46;;;;;;;1.13;0.20;;;23.70;99.90;;;;;;5073637;28;20507;-75
2023/09/13 12:32:12;;;;;;;0.25;0.10;;;24.00;99.90;;;;;;5073402;28;20074;-75
2023/09/13 12:34:38;;;;;;;1.80;0.38;;;24.00;99.30;;;;;;5073628;28;20028;-75
2023/09/13 12:37:03;;;;;;;3.95;0.20;;;24.00;97.50;;;;;;5055642;28;20101;-75
2023/09/13 12:39:29;;;;;;;1.50;0.00;;;24.00;99.50;;;;;;5073431;28;20016;-75
2023/09/13 12:41:56;;;;;;;0.40;0.10;;;24.20;98.00;;;;;;5073441;28;20036;-75
2023/09/13 12:44:21;;;;;;;1.38;0.00;;;24.60;98.90;;;;;;5073663;28;20028;-75
2023/09/13 12:46:50;;;;;;;0.80;0.15;;;24.80;96.30;;;;;;5073254;28;20128;-75